PWSweather.com
Personal Weather Stations
Station Observations
WAIROAHB
Wairoa, Northern Hawkes Bay -NZ 4108

WairoaNorthern Hawkes Bay -NZ 4108

Lat: -39.04516934, Lon: 177.4263989

Elevation: 156

Station Type: WS3083

http://wairoa.net/weather/index.htm

High Low Average
Temperature 79.9°F26.6°C 59.5°F15.3°C 69.3°F20.7°C
Dew Point 63.3°F17.4°C 52.5°F11.4°C 60.6°F15.9°C
Winds 13.0 mph 20.9 kmh Calm Calm 4.0 mph SW6.4 kmh SW
Wind Gusts 19.0 mph30.6 kmh -- 9.0 mph14.5 kmh
Humidity 99% 44% 75%
Pressure 30.08 in1018.6 mb 29.74 in1007.1 mb -
Precipitation 0.00 in0.0 mm - -
Hour Temp Dew Point Humidity Winds Wind Gusts Pressure Precip Precip Rate Daily Precip Total
12:00 AM 68.7°F20.4°C 62.3°F16.8°C 80% 1.6 mph N2.6 kmh N 2.2 mph3.5 kmh 29.78 in1008.5 mb 0.00 in0.0 mm 0.00 in0.0 mm 0.00 in0.0 mm
12:10 AM 68.5°F20.3°C 62.5°F16.9°C 81% 1.6 mph NNE2.6 kmh NNE 3.1 mph5.0 kmh 29.78 in1008.5 mb 0.00 in0.0 mm 0.00 in0.0 mm 0.00 in0.0 mm
12:20 AM 68.2°F20.1°C 62.2°F16.8°C 81% Calm Calm 2.2 mph3.5 kmh 29.77 in1008.1 mb 0.00 in0.0 mm 0.00 in0.0 mm 0.00 in0.0 mm
12:30 AM 67.5°F19.7°C 61.5°F16.4°C 81% Calm Calm -- 29.78 in1008.5 mb 0.00 in0.0 mm 0.00 in0.0 mm 0.00 in0.0 mm
12:40 AM 66.9°F19.4°C 62.0°F16.7°C 84% Calm Calm -- 29.77 in1008.1 mb 0.00 in0.0 mm 0.00 in0.0 mm 0.00 in0.0 mm
12:50 AM 66.6°F19.2°C 61.9°F16.6°C 85% Calm Calm -- 29.77 in1008.1 mb 0.00 in0.0 mm 0.00 in0.0 mm 0.00 in0.0 mm
01:00 AM 66.2°F19.0°C 61.9°F16.6°C 86% Calm Calm -- 29.77 in1008.1 mb 0.00 in0.0 mm 0.00 in0.0 mm 0.00 in0.0 mm
01:10 AM 65.7°F18.7°C 61.7°F16.5°C 87% Calm Calm -- 29.76 in1007.8 mb 0.00 in0.0 mm 0.00 in0.0 mm 0.00 in0.0 mm
01:20 AM 65.5°F18.6°C 61.9°F16.6°C 88% Calm Calm 4.5 mph7.2 kmh 29.76 in1007.8 mb 0.00 in0.0 mm 0.00 in0.0 mm 0.00 in0.0 mm
01:30 AM 65.5°F18.6°C 61.5°F16.4°C 87% Calm Calm -- 29.76 in1007.8 mb 0.00 in0.0 mm 0.00 in0.0 mm 0.00 in0.0 mm
01:40 AM 65.5°F18.6°C 61.5°F16.4°C 87% 0.7 mph N1.1 kmh N 2.2 mph3.5 kmh 29.75 in1007.5 mb 0.00 in0.0 mm 0.00 in0.0 mm 0.00 in0.0 mm
01:50 AM 64.6°F18.1°C 61.0°F16.1°C 88% Calm Calm 2.2 mph3.5 kmh 29.75 in1007.5 mb 0.00 in0.0 mm 0.00 in0.0 mm 0.00 in0.0 mm
02:00 AM 64.2°F17.9°C 60.9°F16.1°C 89% Calm Calm 0.7 mph1.1 kmh 29.75 in1007.5 mb 0.00 in0.0 mm 0.00 in0.0 mm 0.00 in0.0 mm
02:10 AM 63.9°F17.7°C 61.2°F16.2°C 91% 2.2 mph NW3.5 kmh NW 4.5 mph7.2 kmh 29.74 in1007.1 mb 0.00 in0.0 mm 0.00 in0.0 mm 0.00 in0.0 mm
02:20 AM 63.1°F17.3°C 60.8°F16.0°C 92% 1.6 mph NW2.6 kmh NW 3.8 mph6.1 kmh 29.75 in1007.5 mb 0.00 in0.0 mm 0.00 in0.0 mm 0.00 in0.0 mm
02:30 AM 62.6°F17.0°C 60.6°F15.9°C 93% Calm Calm 3.8 mph6.1 kmh 29.75 in1007.5 mb 0.00 in0.0 mm 0.00 in0.0 mm 0.00 in0.0 mm
02:40 AM 62.6°F17.0°C 60.9°F16.1°C 94% 3.8 mph NW6.1 kmh NW 5.4 mph8.7 kmh 29.74 in1007.1 mb 0.00 in0.0 mm 0.00 in0.0 mm 0.00 in0.0 mm
02:50 AM 62.4°F16.9°C 61.3°F16.3°C 96% 2.2 mph NW3.5 kmh NW 4.5 mph7.2 kmh 29.75 in1007.5 mb 0.00 in0.0 mm 0.00 in0.0 mm 0.00 in0.0 mm
03:00 AM 62.1°F16.7°C 60.6°F15.9°C 95% 0.7 mph N1.1 kmh N 3.1 mph5.0 kmh 29.75 in1007.5 mb 0.00 in0.0 mm 0.00 in0.0 mm 0.00 in0.0 mm
03:10 AM 61.9°F16.6°C 60.7°F15.9°C 96% Calm Calm 1.6 mph2.6 kmh 29.75 in1007.5 mb 0.00 in0.0 mm 0.00 in0.0 mm 0.00 in0.0 mm
03:20 AM 62.1°F16.7°C 61.2°F16.2°C 97% 3.1 mph NNW5.0 kmh NNW 3.8 mph6.1 kmh 29.75 in1007.5 mb 0.00 in0.0 mm 0.00 in0.0 mm 0.00 in0.0 mm
03:30 AM 62.1°F16.7°C 61.2°F16.2°C 97% 2.2 mph NW3.5 kmh NW 5.4 mph8.7 kmh 29.76 in1007.8 mb 0.00 in0.0 mm 0.00 in0.0 mm 0.00 in0.0 mm
03:40 AM 61.9°F16.6°C 60.7°F15.9°C 96% 2.2 mph NNW3.5 kmh NNW 3.8 mph6.1 kmh 29.75 in1007.5 mb 0.00 in0.0 mm 0.00 in0.0 mm 0.00 in0.0 mm
03:50 AM 61.5°F16.4°C 60.4°F15.8°C 96% 3.1 mph NW5.0 kmh NW 6.9 mph11.1 kmh 29.75 in1007.5 mb 0.00 in0.0 mm 0.00 in0.0 mm 0.00 in0.0 mm
04:00 AM 61.2°F16.2°C 60.0°F15.6°C 96% 2.2 mph NW3.5 kmh NW 5.4 mph8.7 kmh 29.76 in1007.8 mb 0.00 in0.0 mm 0.00 in0.0 mm 0.00 in0.0 mm
04:10 AM 60.4°F15.8°C 59.9°F15.5°C 98% 2.2 mph N3.5 kmh N 4.5 mph7.2 kmh 29.76 in1007.8 mb 0.00 in0.0 mm 0.00 in0.0 mm 0.00 in0.0 mm
04:20 AM 60.3°F15.7°C 60.0°F15.6°C 99% 3.8 mph NW6.1 kmh NW 4.5 mph7.2 kmh 29.76 in1007.8 mb 0.00 in0.0 mm 0.00 in0.0 mm 0.00 in0.0 mm
04:30 AM 60.1°F15.6°C 59.8°F15.4°C 99% 3.1 mph NW5.0 kmh NW 4.5 mph7.2 kmh 29.77 in1008.1 mb 0.00 in0.0 mm 0.00 in0.0 mm 0.00 in0.0 mm
04:40 AM 59.9°F15.5°C 59.6°F15.3°C 99% 3.1 mph NW5.0 kmh NW 5.4 mph8.7 kmh 29.77 in1008.1 mb 0.00 in0.0 mm 0.00 in0.0 mm 0.00 in0.0 mm
04:50 AM 59.9°F15.5°C 59.6°F15.3°C 99% 1.6 mph NW2.6 kmh NW 5.4 mph8.7 kmh 29.78 in1008.5 mb 0.00 in0.0 mm 0.00 in0.0 mm 0.00 in0.0 mm
05:00 AM 59.5°F15.3°C 59.3°F15.2°C 99% 1.6 mph NW2.6 kmh NW 3.8 mph6.1 kmh 29.78 in1008.5 mb 0.00 in0.0 mm 0.00 in0.0 mm 0.00 in0.0 mm
05:10 AM 59.9°F15.5°C 59.6°F15.3°C 99% Calm Calm 3.1 mph5.0 kmh 29.78 in1008.5 mb 0.00 in0.0 mm 0.00 in0.0 mm 0.00 in0.0 mm
05:20 AM 60.8°F16.0°C 60.2°F15.7°C 98% 3.1 mph NNW5.0 kmh NNW 3.8 mph6.1 kmh 29.78 in1008.5 mb 0.00 in0.0 mm 0.00 in0.0 mm 0.00 in0.0 mm
05:30 AM 61.5°F16.4°C 61.0°F16.1°C 98% 3.1 mph NW5.0 kmh NW 6.0 mph9.7 kmh 29.78 in1008.5 mb 0.00 in0.0 mm 0.00 in0.0 mm 0.00 in0.0 mm
05:40 AM 62.2°F16.8°C 61.1°F16.2°C 96% 3.1 mph NW5.0 kmh NW 6.0 mph9.7 kmh 29.79 in1008.8 mb 0.00 in0.0 mm 0.00 in0.0 mm 0.00 in0.0 mm
05:50 AM 63.1°F17.3°C 61.4°F16.3°C 94% 2.2 mph NNW3.5 kmh NNW 4.5 mph7.2 kmh 29.79 in1008.8 mb 0.00 in0.0 mm 0.00 in0.0 mm 0.00 in0.0 mm
06:00 AM 63.7°F17.6°C 61.0°F16.1°C 91% 3.1 mph NW5.0 kmh NW 7.6 mph12.2 kmh 29.79 in1008.8 mb 0.00 in0.0 mm 0.00 in0.0 mm 0.00 in0.0 mm
06:10 AM 64.2°F17.9°C 61.6°F16.4°C 91% 3.1 mph NW5.0 kmh NW 6.0 mph9.7 kmh 29.79 in1008.8 mb 0.00 in0.0 mm 0.00 in0.0 mm 0.00 in0.0 mm
06:20 AM 65.3°F18.5°C 62.0°F16.7°C 89% 2.2 mph NW3.5 kmh NW 6.0 mph9.7 kmh 29.80 in1009.1 mb 0.00 in0.0 mm 0.00 in0.0 mm 0.00 in0.0 mm
06:30 AM 66.2°F19.0°C 61.6°F16.4°C 85% 1.6 mph NNW2.6 kmh NNW 6.9 mph11.1 kmh 29.80 in1009.1 mb 0.00 in0.0 mm 0.00 in0.0 mm 0.00 in0.0 mm
06:40 AM 68.0°F20.0°C 62.7°F17.1°C 83% 2.2 mph NNW3.5 kmh NNW 4.5 mph7.2 kmh 29.80 in1009.1 mb 0.00 in0.0 mm 0.00 in0.0 mm 0.00 in0.0 mm
06:50 AM 68.5°F20.3°C 62.2°F16.8°C 80% 3.1 mph NW5.0 kmh NW 5.4 mph8.7 kmh 29.81 in1009.5 mb 0.00 in0.0 mm 0.00 in0.0 mm 0.00 in0.0 mm
07:00 AM 69.1°F20.6°C 61.6°F16.4°C 77% 3.8 mph NW6.1 kmh NW 6.0 mph9.7 kmh 29.81 in1009.5 mb 0.00 in0.0 mm 0.00 in0.0 mm 0.00 in0.0 mm
07:10 AM 69.8°F21.0°C 61.9°F16.6°C 76% 3.1 mph NNW5.0 kmh NNW 6.0 mph9.7 kmh 29.81 in1009.5 mb 0.00 in0.0 mm 0.00 in0.0 mm 0.00 in0.0 mm
07:20 AM 70.0°F21.1°C 61.3°F16.3°C 74% 3.1 mph NNW5.0 kmh NNW 6.0 mph9.7 kmh 29.81 in1009.5 mb 0.00 in0.0 mm 0.00 in0.0 mm 0.00 in0.0 mm
07:30 AM 71.4°F21.9°C 61.6°F16.4°C 71% 3.1 mph N5.0 kmh N 6.0 mph9.7 kmh 29.81 in1009.5 mb 0.00 in0.0 mm 0.00 in0.0 mm 0.00 in0.0 mm
07:40 AM 72.1°F22.3°C 59.8°F15.4°C 65% 2.2 mph NNW3.5 kmh NNW 5.4 mph8.7 kmh 29.81 in1009.5 mb 0.00 in0.0 mm 0.00 in0.0 mm 0.00 in0.0 mm
07:50 AM 73.9°F23.3°C 61.0°F16.1°C 64% 2.2 mph N3.5 kmh N 5.4 mph8.7 kmh 29.81 in1009.5 mb 0.00 in0.0 mm 0.00 in0.0 mm 0.00 in0.0 mm
08:00 AM 77.4°F25.2°C 60.5°F15.8°C 56% 3.1 mph N5.0 kmh N 4.5 mph7.2 kmh 29.81 in1009.5 mb 0.00 in0.0 mm 0.00 in0.0 mm 0.00 in0.0 mm
08:10 AM 77.7°F25.4°C 60.3°F15.7°C 55% 2.2 mph NNW3.5 kmh NNW 4.5 mph7.2 kmh 29.82 in1009.8 mb 0.00 in0.0 mm 0.00 in0.0 mm 0.00 in0.0 mm
08:20 AM 77.7°F25.4°C 55.9°F13.3°C 47% 1.6 mph NW2.6 kmh NW 5.4 mph8.7 kmh 29.81 in1009.5 mb 0.00 in0.0 mm 0.00 in0.0 mm 0.00 in0.0 mm
08:30 AM 79.9°F26.6°C 57.3°F14.1°C 46% 3.1 mph S5.0 kmh S 5.4 mph8.7 kmh 29.82 in1009.8 mb 0.00 in0.0 mm 0.00 in0.0 mm 0.00 in0.0 mm
08:40 AM 77.9°F25.5°C 54.3°F12.4°C 44% 4.5 mph SSE7.2 kmh SSE 6.9 mph11.1 kmh 29.82 in1009.8 mb 0.00 in0.0 mm 0.00 in0.0 mm 0.00 in0.0 mm
08:50 AM 75.9°F24.4°C 52.5°F11.4°C 44% 3.1 mph SE5.0 kmh SE 7.6 mph12.2 kmh 29.82 in1009.8 mb 0.00 in0.0 mm 0.00 in0.0 mm 0.00 in0.0 mm
09:00 AM 76.1°F24.5°C 53.3°F11.8°C 45% 4.5 mph NNW7.2 kmh NNW 6.9 mph11.1 kmh 29.83 in1010.2 mb 0.00 in0.0 mm 0.00 in0.0 mm 0.00 in0.0 mm
09:10 AM 77.0°F25.0°C 54.7°F12.6°C 46% 5.4 mph SE8.7 kmh SE 9.2 mph14.8 kmh 29.84 in1010.5 mb 0.00 in0.0 mm 0.00 in0.0 mm 0.00 in0.0 mm
09:20 AM 76.1°F24.5°C 57.2°F14.0°C 52% 5.4 mph S8.7 kmh S 9.8 mph15.8 kmh 29.83 in1010.2 mb 0.00 in0.0 mm 0.00 in0.0 mm 0.00 in0.0 mm
09:30 AM 75.0°F23.9°C 59.3°F15.2°C 58% 3.8 mph SE6.1 kmh SE 7.6 mph12.2 kmh 29.84 in1010.5 mb 0.00 in0.0 mm 0.00 in0.0 mm 0.00 in0.0 mm
09:40 AM 73.6°F23.1°C 59.8°F15.4°C 62% 9.8 mph SW15.8 kmh SW 17.4 mph28.0 kmh 29.84 in1010.5 mb 0.00 in0.0 mm 0.00 in0.0 mm 0.00 in0.0 mm
09:50 AM 73.6°F23.1°C 58.4°F14.7°C 59% 5.4 mph W8.7 kmh W 14.5 mph23.3 kmh 29.85 in1010.8 mb 0.00 in0.0 mm 0.00 in0.0 mm 0.00 in0.0 mm
10:00 AM 74.3°F23.5°C 59.1°F15.1°C 59% 9.2 mph SW14.8 kmh SW 13.6 mph21.9 kmh 29.85 in1010.8 mb 0.00 in0.0 mm 0.00 in0.0 mm 0.00 in0.0 mm
10:10 AM 74.3°F23.5°C 60.0°F15.6°C 61% 4.5 mph SW7.2 kmh SW 15.9 mph25.6 kmh 29.85 in1010.8 mb 0.00 in0.0 mm 0.00 in0.0 mm 0.00 in0.0 mm
10:20 AM 73.8°F23.2°C 61.3°F16.3°C 65% 7.6 mph WSW12.2 kmh WSW 16.8 mph27.0 kmh 29.86 in1011.2 mb 0.00 in0.0 mm 0.00 in0.0 mm 0.00 in0.0 mm
10:30 AM 73.0°F22.8°C 61.0°F16.1°C 66% 7.6 mph S12.2 kmh S 19.0 mph30.6 kmh 29.86 in1011.2 mb 0.00 in0.0 mm 0.00 in0.0 mm 0.00 in0.0 mm
10:40 AM 72.9°F22.7°C 61.3°F16.3°C 67% 9.2 mph ESE14.8 kmh ESE 16.8 mph27.0 kmh 29.87 in1011.5 mb 0.00 in0.0 mm 0.00 in0.0 mm 0.00 in0.0 mm
10:50 AM 72.9°F22.7°C 60.9°F16.1°C 66% 8.3 mph S13.4 kmh S 12.1 mph19.5 kmh 29.87 in1011.5 mb 0.00 in0.0 mm 0.00 in0.0 mm 0.00 in0.0 mm
11:00 AM 72.1°F22.3°C 58.9°F14.9°C 63% 8.3 mph NW13.4 kmh NW 19.0 mph30.6 kmh 29.87 in1011.5 mb 0.00 in0.0 mm 0.00 in0.0 mm 0.00 in0.0 mm
11:10 AM 72.3°F22.4°C 59.0°F15.0°C 63% 8.3 mph WSW13.4 kmh WSW 13.0 mph20.9 kmh 29.87 in1011.5 mb 0.00 in0.0 mm 0.00 in0.0 mm 0.00 in0.0 mm
11:20 AM 72.3°F22.4°C 59.0°F15.0°C 63% 9.8 mph NNW15.8 kmh NNW 17.4 mph28.0 kmh 29.87 in1011.5 mb 0.00 in0.0 mm 0.00 in0.0 mm 0.00 in0.0 mm
11:30 AM 72.9°F22.7°C 60.0°F15.6°C 64% 6.9 mph W11.1 kmh W 18.3 mph29.5 kmh 29.88 in1011.9 mb 0.00 in0.0 mm 0.00 in0.0 mm 0.00 in0.0 mm
11:40 AM 72.9°F22.7°C 59.1°F15.1°C 62% 9.8 mph NW15.8 kmh NW 16.8 mph27.0 kmh 29.88 in1011.9 mb 0.00 in0.0 mm 0.00 in0.0 mm 0.00 in0.0 mm
11:50 AM 74.1°F23.4°C 60.3°F15.7°C 62% 6.9 mph WSW11.1 kmh WSW 14.5 mph23.3 kmh 29.88 in1011.9 mb 0.00 in0.0 mm 0.00 in0.0 mm 0.00 in0.0 mm
12:00 PM 73.8°F23.2°C 59.5°F15.3°C 61% 8.3 mph SW13.4 kmh SW 15.2 mph24.5 kmh 29.88 in1011.9 mb 0.00 in0.0 mm 0.00 in0.0 mm 0.00 in0.0 mm
12:10 PM 74.3°F23.5°C 60.0°F15.6°C 61% 6.9 mph W11.1 kmh W 13.6 mph21.9 kmh 29.88 in1011.9 mb 0.00 in0.0 mm 0.00 in0.0 mm 0.00 in0.0 mm
12:20 PM 74.1°F23.4°C 60.8°F16.0°C 63% 8.3 mph WSW13.4 kmh WSW 15.2 mph24.5 kmh 29.88 in1011.9 mb 0.00 in0.0 mm 0.00 in0.0 mm 0.00 in0.0 mm
12:30 PM 73.8°F23.2°C 60.4°F15.8°C 63% 9.2 mph NNW14.8 kmh NNW 14.5 mph23.3 kmh 29.88 in1011.9 mb 0.00 in0.0 mm 0.00 in0.0 mm 0.00 in0.0 mm
12:40 PM 74.5°F23.6°C 60.6°F15.9°C 62% 8.3 mph W13.4 kmh W 15.2 mph24.5 kmh 29.88 in1011.9 mb 0.00 in0.0 mm 0.00 in0.0 mm 0.00 in0.0 mm
12:50 PM 74.5°F23.6°C 61.5°F16.4°C 64% 8.3 mph NW13.4 kmh NW 16.8 mph27.0 kmh 29.89 in1012.2 mb 0.00 in0.0 mm 0.00 in0.0 mm 0.00 in0.0 mm
01:00 PM 74.3°F23.5°C 61.4°F16.3°C 64% 7.6 mph WSW12.2 kmh WSW 14.5 mph23.3 kmh 29.88 in1011.9 mb 0.00 in0.0 mm 0.00 in0.0 mm 0.00 in0.0 mm
01:10 PM 74.8°F23.8°C 61.0°F16.1°C 62% 6.9 mph WSW11.1 kmh WSW 13.0 mph20.9 kmh 29.88 in1011.9 mb 0.00 in0.0 mm 0.00 in0.0 mm 0.00 in0.0 mm
01:20 PM 75.2°F24.0°C 61.3°F16.3°C 62% 9.2 mph W14.8 kmh W 13.0 mph20.9 kmh 29.89 in1012.2 mb 0.00 in0.0 mm 0.00 in0.0 mm 0.00 in0.0 mm
01:30 PM 74.7°F23.7°C 60.8°F16.0°C 62% 8.3 mph WSW13.4 kmh WSW 13.6 mph21.9 kmh 29.89 in1012.2 mb 0.00 in0.0 mm 0.00 in0.0 mm 0.00 in0.0 mm
01:40 PM 74.8°F23.8°C 60.5°F15.8°C 61% 7.6 mph W12.2 kmh W 13.0 mph20.9 kmh 29.89 in1012.2 mb 0.00 in0.0 mm 0.00 in0.0 mm 0.00 in0.0 mm
01:50 PM 74.8°F23.8°C 61.4°F16.3°C 63% 8.3 mph WSW13.4 kmh WSW 15.2 mph24.5 kmh 29.89 in1012.2 mb 0.00 in0.0 mm 0.00 in0.0 mm 0.00 in0.0 mm
02:00 PM 75.0°F23.9°C 62.1°F16.7°C 64% 3.1 mph W5.0 kmh W 10.7 mph17.2 kmh 29.89 in1012.2 mb 0.00 in0.0 mm 0.00 in0.0 mm 0.00 in0.0 mm
02:10 PM 75.6°F24.2°C 61.7°F16.5°C 62% 6.9 mph NNW11.1 kmh NNW 13.6 mph21.9 kmh 29.89 in1012.2 mb 0.00 in0.0 mm 0.00 in0.0 mm 0.00 in0.0 mm
02:20 PM 75.2°F24.0°C 61.3°F16.3°C 62% 7.6 mph W12.2 kmh W 15.2 mph24.5 kmh 29.89 in1012.2 mb 0.00 in0.0 mm 0.00 in0.0 mm 0.00 in0.0 mm
02:30 PM 75.4°F24.1°C 62.4°F16.9°C 64% 7.6 mph WNW12.2 kmh WNW 15.2 mph24.5 kmh 29.89 in1012.2 mb 0.00 in0.0 mm 0.00 in0.0 mm 0.00 in0.0 mm
02:40 PM 75.9°F24.4°C 62.9°F17.2°C 64% 11.4 mph SW18.3 kmh SW 16.8 mph27.0 kmh 29.89 in1012.2 mb 0.00 in0.0 mm 0.00 in0.0 mm 0.00 in0.0 mm
02:50 PM 75.9°F24.4°C 63.3°F17.4°C 65% 10.7 mph W17.2 kmh W 16.8 mph27.0 kmh 29.90 in1012.5 mb 0.00 in0.0 mm 0.00 in0.0 mm 0.00 in0.0 mm
03:00 PM 74.8°F23.8°C 63.2°F17.3°C 67% 12.1 mph NNW19.5 kmh NNW 19.0 mph30.6 kmh 29.90 in1012.5 mb 0.00 in0.0 mm 0.00 in0.0 mm 0.00 in0.0 mm
03:10 PM 75.0°F23.9°C 62.9°F17.2°C 66% 12.1 mph W19.5 kmh W 16.8 mph27.0 kmh 29.90 in1012.5 mb 0.00 in0.0 mm 0.00 in0.0 mm 0.00 in0.0 mm
03:20 PM 75.2°F24.0°C 62.7°F17.1°C 65% 7.6 mph NW12.2 kmh NW 15.9 mph25.6 kmh 29.90 in1012.5 mb 0.00 in0.0 mm 0.00 in0.0 mm 0.00 in0.0 mm
03:30 PM 74.3°F23.5°C 62.7°F17.1°C 67% 9.2 mph WNW14.8 kmh WNW 19.0 mph30.6 kmh 29.91 in1012.9 mb 0.00 in0.0 mm 0.00 in0.0 mm 0.00 in0.0 mm
03:40 PM 74.3°F23.5°C 62.7°F17.1°C 67% 13.0 mph S20.9 kmh S 18.3 mph29.5 kmh 29.91 in1012.9 mb 0.00 in0.0 mm 0.00 in0.0 mm 0.00 in0.0 mm
03:50 PM 74.3°F23.5°C 61.8°F16.6°C 65% 6.9 mph WSW11.1 kmh WSW 18.3 mph29.5 kmh 29.91 in1012.9 mb 0.00 in0.0 mm 0.00 in0.0 mm 0.00 in0.0 mm
04:00 PM 74.3°F23.5°C 61.8°F16.6°C 65% 9.2 mph WSW14.8 kmh WSW 15.9 mph25.6 kmh 29.92 in1013.2 mb 0.00 in0.0 mm 0.00 in0.0 mm 0.00 in0.0 mm
04:10 PM 74.3°F23.5°C 62.2°F16.8°C 66% 8.3 mph W13.4 kmh W 15.9 mph25.6 kmh 29.92 in1013.2 mb 0.00 in0.0 mm 0.00 in0.0 mm 0.00 in0.0 mm
04:20 PM 75.2°F24.0°C 62.7°F17.1°C 65% 6.0 mph WSW9.7 kmh WSW 13.0 mph20.9 kmh 29.92 in1013.2 mb 0.00 in0.0 mm 0.00 in0.0 mm 0.00 in0.0 mm
04:30 PM 75.2°F24.0°C 61.8°F16.6°C 63% 12.1 mph W19.5 kmh W 15.2 mph24.5 kmh 29.92 in1013.2 mb 0.00 in0.0 mm 0.00 in0.0 mm 0.00 in0.0 mm
04:40 PM 74.3°F23.5°C 62.7°F17.1°C 67% 6.0 mph WSW9.7 kmh WSW 15.2 mph24.5 kmh 29.92 in1013.2 mb 0.00 in0.0 mm 0.00 in0.0 mm 0.00 in0.0 mm
04:50 PM 73.8°F23.2°C 62.2°F16.8°C 67% 4.5 mph WSW7.2 kmh WSW 15.9 mph25.6 kmh 29.92 in1013.2 mb 0.00 in0.0 mm 0.00 in0.0 mm 0.00 in0.0 mm
05:00 PM 74.1°F23.4°C 62.1°F16.7°C 66% 6.0 mph W9.7 kmh W 15.9 mph25.6 kmh 29.93 in1013.5 mb 0.00 in0.0 mm 0.00 in0.0 mm 0.00 in0.0 mm
05:10 PM 73.8°F23.2°C 61.7°F16.5°C 66% 7.6 mph SW12.2 kmh SW 15.2 mph24.5 kmh 29.93 in1013.5 mb 0.00 in0.0 mm 0.00 in0.0 mm 0.00 in0.0 mm
05:20 PM 74.5°F23.6°C 61.1°F16.2°C 63% 6.9 mph SE11.1 kmh SE 13.6 mph21.9 kmh 29.94 in1013.9 mb 0.00 in0.0 mm 0.00 in0.0 mm 0.00 in0.0 mm
05:30 PM 74.5°F23.6°C 60.2°F15.7°C 61% 6.0 mph ESE9.7 kmh ESE 14.5 mph23.3 kmh 29.95 in1014.2 mb 0.00 in0.0 mm 0.00 in0.0 mm 0.00 in0.0 mm
05:40 PM 73.9°F23.3°C 61.5°F16.4°C 65% 6.0 mph WNW9.7 kmh WNW 13.6 mph21.9 kmh 29.95 in1014.2 mb 0.00 in0.0 mm 0.00 in0.0 mm 0.00 in0.0 mm
05:50 PM 73.8°F23.2°C 60.0°F15.6°C 62% 6.9 mph WSW11.1 kmh WSW 10.7 mph17.2 kmh 29.95 in1014.2 mb 0.00 in0.0 mm 0.00 in0.0 mm 0.00 in0.0 mm
06:00 PM 72.9°F22.7°C 60.0°F15.6°C 64% 6.9 mph N11.1 kmh N 10.7 mph17.2 kmh 29.95 in1014.2 mb 0.00 in0.0 mm 0.00 in0.0 mm 0.00 in0.0 mm
06:10 PM 71.8°F22.1°C 59.4°F15.2°C 65% 4.5 mph SW7.2 kmh SW 9.2 mph14.8 kmh 29.97 in1014.9 mb 0.00 in0.0 mm 0.00 in0.0 mm 0.00 in0.0 mm
06:20 PM 70.2°F21.2°C 59.9°F15.5°C 70% 5.4 mph NNE8.7 kmh NNE 11.4 mph18.3 kmh 29.98 in1015.2 mb 0.00 in0.0 mm 0.00 in0.0 mm 0.00 in0.0 mm
06:30 PM 69.8°F21.0°C 60.4°F15.8°C 72% 4.5 mph W7.2 kmh W 9.2 mph14.8 kmh 29.98 in1015.2 mb 0.00 in0.0 mm 0.00 in0.0 mm 0.00 in0.0 mm
06:40 PM 69.1°F20.6°C 60.1°F15.6°C 73% 5.4 mph WNW8.7 kmh WNW 9.2 mph14.8 kmh 29.98 in1015.2 mb 0.00 in0.0 mm 0.00 in0.0 mm 0.00 in0.0 mm
06:50 PM 68.9°F20.5°C 59.5°F15.3°C 72% 8.3 mph NW13.4 kmh NW 11.4 mph18.3 kmh 29.99 in1015.6 mb 0.00 in0.0 mm 0.00 in0.0 mm 0.00 in0.0 mm
07:00 PM 68.7°F20.4°C 60.1°F15.6°C 74% 3.8 mph W6.1 kmh W 10.7 mph17.2 kmh 30.00 in1015.9 mb 0.00 in0.0 mm 0.00 in0.0 mm 0.00 in0.0 mm
07:10 PM 68.5°F20.3°C 60.7°F15.9°C 76% 3.8 mph N6.1 kmh N 8.3 mph13.4 kmh 30.00 in1015.9 mb 0.00 in0.0 mm 0.00 in0.0 mm 0.00 in0.0 mm
07:20 PM 68.4°F20.2°C 60.9°F16.1°C 77% 3.8 mph WSW6.1 kmh WSW 9.2 mph14.8 kmh 30.01 in1016.3 mb 0.00 in0.0 mm 0.00 in0.0 mm 0.00 in0.0 mm
07:30 PM 68.2°F20.1°C 61.4°F16.3°C 79% 5.4 mph SSW8.7 kmh SSW 9.8 mph15.8 kmh 30.02 in1016.6 mb 0.00 in0.0 mm 0.00 in0.0 mm 0.00 in0.0 mm
07:40 PM 67.8°F19.9°C 60.4°F15.8°C 77% 5.4 mph W8.7 kmh W 13.6 mph21.9 kmh 30.02 in1016.6 mb 0.00 in0.0 mm 0.00 in0.0 mm 0.00 in0.0 mm
07:50 PM 67.8°F19.9°C 61.1°F16.2°C 79% 6.0 mph NW9.7 kmh NW 9.8 mph15.8 kmh 30.02 in1016.6 mb 0.00 in0.0 mm 0.00 in0.0 mm 0.00 in0.0 mm
08:00 PM 67.8°F19.9°C 61.1°F16.2°C 79% 5.4 mph NW8.7 kmh NW 9.2 mph14.8 kmh 30.03 in1016.9 mb 0.00 in0.0 mm 0.00 in0.0 mm 0.00 in0.0 mm
08:10 PM 67.6°F19.8°C 60.9°F16.1°C 79% 3.1 mph NW5.0 kmh NW 7.6 mph12.2 kmh 30.03 in1016.9 mb 0.00 in0.0 mm 0.00 in0.0 mm 0.00 in0.0 mm
08:20 PM 67.6°F19.8°C 60.9°F16.1°C 79% 3.1 mph SE5.0 kmh SE 8.3 mph13.4 kmh 30.04 in1017.3 mb 0.00 in0.0 mm 0.00 in0.0 mm 0.00 in0.0 mm
08:30 PM 67.3°F19.6°C 60.6°F15.9°C 79% 5.4 mph NE8.7 kmh NE 7.6 mph12.2 kmh 30.04 in1017.3 mb 0.00 in0.0 mm 0.00 in0.0 mm 0.00 in0.0 mm
08:40 PM 67.1°F19.5°C 60.4°F15.8°C 79% 3.1 mph WSW5.0 kmh WSW 6.9 mph11.1 kmh 30.04 in1017.3 mb 0.00 in0.0 mm 0.00 in0.0 mm 0.00 in0.0 mm
08:50 PM 66.9°F19.4°C 60.6°F15.9°C 80% 2.2 mph ESE3.5 kmh ESE 7.6 mph12.2 kmh 30.05 in1017.6 mb 0.00 in0.0 mm 0.00 in0.0 mm 0.00 in0.0 mm
09:00 PM 66.6°F19.2°C 60.2°F15.7°C 80% 2.2 mph S3.5 kmh S 6.0 mph9.7 kmh 30.05 in1017.6 mb 0.00 in0.0 mm 0.00 in0.0 mm 0.00 in0.0 mm
09:10 PM 66.2°F19.0°C 60.2°F15.7°C 81% 2.2 mph ESE3.5 kmh ESE 5.4 mph8.7 kmh 30.05 in1017.6 mb 0.00 in0.0 mm 0.00 in0.0 mm 0.00 in0.0 mm
09:20 PM 66.2°F19.0°C 60.6°F15.9°C 82% 1.6 mph E2.6 kmh E 5.4 mph8.7 kmh 30.06 in1017.9 mb 0.00 in0.0 mm 0.00 in0.0 mm 0.00 in0.0 mm
09:30 PM 66.0°F18.9°C 61.1°F16.2°C 84% 4.5 mph SE7.2 kmh SE 6.9 mph11.1 kmh 30.06 in1017.9 mb 0.00 in0.0 mm 0.00 in0.0 mm 0.00 in0.0 mm
09:40 PM 66.0°F18.9°C 60.7°F15.9°C 83% 1.6 mph NNE2.6 kmh NNE 6.0 mph9.7 kmh 30.07 in1018.3 mb 0.00 in0.0 mm 0.00 in0.0 mm 0.00 in0.0 mm
09:50 PM 65.7°F18.7°C 60.7°F15.9°C 84% 1.6 mph ESE2.6 kmh ESE 3.1 mph5.0 kmh 30.07 in1018.3 mb 0.00 in0.0 mm 0.00 in0.0 mm 0.00 in0.0 mm
10:00 PM 65.3°F18.5°C 60.7°F15.9°C 85% Calm Calm 3.8 mph6.1 kmh 30.07 in1018.3 mb 0.00 in0.0 mm 0.00 in0.0 mm 0.00 in0.0 mm
10:10 PM 64.9°F18.3°C 60.3°F15.7°C 85% 1.6 mph ESE2.6 kmh ESE 3.1 mph5.0 kmh 30.07 in1018.3 mb 0.00 in0.0 mm 0.00 in0.0 mm 0.00 in0.0 mm
10:20 PM 64.8°F18.2°C 60.2°F15.7°C 85% Calm Calm 3.1 mph5.0 kmh 30.07 in1018.3 mb 0.00 in0.0 mm 0.00 in0.0 mm 0.00 in0.0 mm
10:30 PM 64.8°F18.2°C 60.2°F15.7°C 85% Calm Calm 3.8 mph6.1 kmh 30.07 in1018.3 mb 0.00 in0.0 mm 0.00 in0.0 mm 0.00 in0.0 mm
10:40 PM 64.8°F18.2°C 60.2°F15.7°C 85% Calm Calm 1.6 mph2.6 kmh 30.07 in1018.3 mb 0.00 in0.0 mm 0.00 in0.0 mm 0.00 in0.0 mm
10:50 PM 64.8°F18.2°C 60.2°F15.7°C 85% Calm Calm 3.1 mph5.0 kmh 30.07 in1018.3 mb 0.00 in0.0 mm 0.00 in0.0 mm 0.00 in0.0 mm
10:57 PM 64.6°F18.1°C 59.6°F15.3°C 84% Calm Calm -- 30.08 in1018.6 mb 0.00 in0.0 mm 0.00 in0.0 mm 0.00 in0.0 mm
11:10 PM 63.9°F17.7°C 59.9°F15.5°C 87% 1.6 mph NW2.6 kmh NW 3.8 mph6.1 kmh 30.08 in1018.6 mb 0.00 in0.0 mm 0.00 in0.0 mm 0.00 in0.0 mm
11:20 PM 63.1°F17.3°C 60.2°F15.7°C 90% Calm Calm 3.8 mph6.1 kmh 30.07 in1018.3 mb 0.00 in0.0 mm 0.00 in0.0 mm 0.00 in0.0 mm
11:30 PM 62.6°F17.0°C 60.0°F15.6°C 91% Calm Calm -- 30.07 in1018.3 mb 0.00 in0.0 mm 0.00 in0.0 mm 0.00 in0.0 mm
11:40 PM 62.2°F16.8°C 60.2°F15.7°C 93% Calm Calm -- 30.07 in1018.3 mb 0.00 in0.0 mm 0.00 in0.0 mm 0.00 in0.0 mm
11:50 PM 61.9°F16.6°C 60.2°F15.7°C 94% Calm Calm -- 30.08 in1018.6 mb 0.00 in0.0 mm 0.00 in0.0 mm 0.00 in0.0 mm